sensor_id;sensor_type;location;lat;lon;timestamp;P1;durP1;ratioP1;P2;durP2;ratioP2
67372;SDS011;54257;54.496;18.412;2022-08-04T00:00:05;10.50;;;6.50;;
67372;SDS011;54257;54.496;18.412;2022-08-04T00:03:27;6.50;;;5.80;;
67372;SDS011;54257;54.496;18.412;2022-08-04T00:06:00;8.20;;;5.30;;
67372;SDS011;54257;54.496;18.412;2022-08-04T00:08:37;7.00;;;5.40;;
67372;SDS011;54257;54.496;18.412;2022-08-04T00:11:13;8.00;;;5.60;;
67372;SDS011;54257;54.496;18.412;2022-08-04T00:13:52;5.20;;;4.70;;
67372;SDS011;54257;54.496;18.412;2022-08-04T00:16:24;6.50;;;4.90;;
67372;SDS011;54257;54.496;18.412;2022-08-04T00:19:02;8.50;;;5.30;;
67372;SDS011;54257;54.496;18.412;2022-08-04T00:21:37;5.90;;;4.50;;
67372;SDS011;54257;54.496;18.412;2022-08-04T00:24:08;6.60;;;4.50;;
67372;SDS011;54257;54.496;18.412;2022-08-04T00:26:38;6.80;;;5.60;;
67372;SDS011;54257;54.496;18.412;2022-08-04T00:29:05;7.90;;;5.40;;
67372;SDS011;54257;54.496;18.412;2022-08-04T00:31:32;8.30;;;4.60;;
67372;SDS011;54257;54.496;18.412;2022-08-04T00:34:00;8.40;;;5.40;;
67372;SDS011;54257;54.496;18.412;2022-08-04T00:36:27;7.30;;;5.20;;
67372;SDS011;54257;54.496;18.412;2022-08-04T00:38:55;7.10;;;5.40;;
67372;SDS011;54257;54.496;18.412;2022-08-04T00:41:32;5.40;;;4.50;;
67372;SDS011;54257;54.496;18.412;2022-08-04T00:44:39;7.50;;;4.90;;
67372;SDS011;54257;54.496;18.412;2022-08-04T00:50:10;7.20;;;4.50;;
67372;SDS011;54257;54.496;18.412;2022-08-04T00:55:17;5.30;;;4.00;;
67372;SDS011;54257;54.496;18.412;2022-08-04T01:01:03;8.10;;;4.70;;
67372;SDS011;54257;54.496;18.412;2022-08-04T01:12:13;5.80;;;4.30;;
67372;SDS011;54257;54.496;18.412;2022-08-04T01:15:09;5.60;;;4.00;;
67372;SDS011;54257;54.496;18.412;2022-08-04T01:20:25;4.20;;;3.80;;
67372;SDS011;54257;54.496;18.412;2022-08-04T01:28:34;5.10;;;3.80;;
67372;SDS011;54257;54.496;18.412;2022-08-04T01:31:19;5.00;;;3.60;;
67372;SDS011;54257;54.496;18.412;2022-08-04T01:33:55;6.90;;;3.50;;
67372;SDS011;54257;54.496;18.412;2022-08-04T01:36:25;4.70;;;3.70;;
67372;SDS011;54257;54.496;18.412;2022-08-04T01:38:55;5.00;;;4.10;;
67372;SDS011;54257;54.496;18.412;2022-08-04T01:41:22;7.10;;;3.70;;
67372;SDS011;54257;54.496;18.412;2022-08-04T01:43:50;5.10;;;3.80;;
67372;SDS011;54257;54.496;18.412;2022-08-04T01:46:21;4.20;;;3.80;;
67372;SDS011;54257;54.496;18.412;2022-08-04T01:48:52;5.70;;;3.80;;
67372;SDS011;54257;54.496;18.412;2022-08-04T01:51:19;5.30;;;3.90;;
67372;SDS011;54257;54.496;18.412;2022-08-04T01:53:50;4.00;;;3.70;;
67372;SDS011;54257;54.496;18.412;2022-08-04T01:56:17;6.20;;;3.60;;
67372;SDS011;54257;54.496;18.412;2022-08-04T01:58:46;5.00;;;3.80;;
67372;SDS011;54257;54.496;18.412;2022-08-04T02:01:13;4.40;;;3.70;;
67372;SDS011;54257;54.496;18.412;2022-08-04T02:03:43;5.30;;;3.80;;
67372;SDS011;54257;54.496;18.412;2022-08-04T02:09:02;5.10;;;3.60;;
67372;SDS011;54257;54.496;18.412;2022-08-04T02:11:49;4.60;;;3.90;;
67372;SDS011;54257;54.496;18.412;2022-08-04T02:18:18;5.70;;;4.40;;
67372;SDS011;54257;54.496;18.412;2022-08-04T02:20:34;4.70;;;3.70;;
67372;SDS011;54257;54.496;18.412;2022-08-04T02:23:06;4.40;;;3.90;;
67372;SDS011;54257;54.496;18.412;2022-08-04T02:25:38;4.30;;;3.90;;
67372;SDS011;54257;54.496;18.412;2022-08-04T02:28:32;4.40;;;3.70;;
67372;SDS011;54257;54.496;18.412;2022-08-04T02:31:13;5.20;;;3.90;;
67372;SDS011;54257;54.496;18.412;2022-08-04T02:37:08;4.00;;;3.60;;
67372;SDS011;54257;54.496;18.412;2022-08-04T02:39:36;4.80;;;3.70;;
67372;SDS011;54257;54.496;18.412;2022-08-04T02:42:07;6.00;;;4.50;;
67372;SDS011;54257;54.496;18.412;2022-08-04T02:44:37;5.20;;;3.60;;
67372;SDS011;54257;54.496;18.412;2022-08-04T02:47:06;4.50;;;3.90;;
67372;SDS011;54257;54.496;18.412;2022-08-04T02:49:35;7.50;;;3.80;;
67372;SDS011;54257;54.496;18.412;2022-08-04T02:52:03;4.90;;;4.40;;
67372;SDS011;54257;54.496;18.412;2022-08-04T02:54:34;4.80;;;3.80;;
67372;SDS011;54257;54.496;18.412;2022-08-04T02:57:08;5.20;;;4.40;;
67372;SDS011;54257;54.496;18.412;2022-08-04T03:00:00;4.30;;;3.90;;
67372;SDS011;54257;54.496;18.412;2022-08-04T03:05:27;4.20;;;3.80;;
67372;SDS011;54257;54.496;18.412;2022-08-04T03:08:22;9.00;;;4.60;;
67372;SDS011;54257;54.496;18.412;2022-08-04T03:13:38;4.40;;;4.00;;
67372;SDS011;54257;54.496;18.412;2022-08-04T03:25:13;7.70;;;5.30;;
67372;SDS011;54257;54.496;18.412;2022-08-04T03:31:46;5.90;;;4.30;;
67372;SDS011;54257;54.496;18.412;2022-08-04T03:40:03;6.70;;;5.00;;
67372;SDS011;54257;54.496;18.412;2022-08-04T03:45:46;11.10;;;5.30;;
67372;SDS011;54257;54.496;18.412;2022-08-04T03:49:03;7.10;;;5.10;;
67372;SDS011;54257;54.496;18.412;2022-08-04T03:57:59;5.20;;;4.70;;
67372;SDS011;54257;54.496;18.412;2022-08-04T04:12:13;5.60;;;5.10;;
67372;SDS011;54257;54.496;18.412;2022-08-04T04:15:00;5.40;;;5.00;;
67372;SDS011;54257;54.496;18.412;2022-08-04T04:26:03;8.90;;;6.00;;
67372;SDS011;54257;54.496;18.412;2022-08-04T04:32:10;11.00;;;5.10;;
67372;SDS011;54257;54.496;18.412;2022-08-04T04:34:52;6.80;;;5.30;;
67372;SDS011;54257;54.496;18.412;2022-08-04T04:56:46;7.40;;;5.60;;
67372;SDS011;54257;54.496;18.412;2022-08-04T04:59:23;6.40;;;5.80;;
67372;SDS011;54257;54.496;18.412;2022-08-04T05:02:19;7.50;;;5.30;;
67372;SDS011;54257;54.496;18.412;2022-08-04T05:10:51;7.90;;;6.00;;
67372;SDS011;54257;54.496;18.412;2022-08-04T05:13:53;8.30;;;5.70;;
67372;SDS011;54257;54.496;18.412;2022-08-04T05:16:35;10.30;;;5.50;;
67372;SDS011;54257;54.496;18.412;2022-08-04T05:21:51;7.30;;;5.60;;
67372;SDS011;54257;54.496;18.412;2022-08-04T05:24:25;6.20;;;5.60;;
67372;SDS011;54257;54.496;18.412;2022-08-04T05:26:55;13.40;;;6.00;;
67372;SDS011;54257;54.496;18.412;2022-08-04T05:29:27;8.20;;;5.50;;
67372;SDS011;54257;54.496;18.412;2022-08-04T05:32:01;6.20;;;5.00;;
67372;SDS011;54257;54.496;18.412;2022-08-04T05:34:34;10.50;;;5.80;;
67372;SDS011;54257;54.496;18.412;2022-08-04T05:37:09;10.50;;;5.80;;
67372;SDS011;54257;54.496;18.412;2022-08-04T05:39:43;11.00;;;5.60;;
67372;SDS011;54257;54.496;18.412;2022-08-04T05:42:15;9.10;;;5.40;;
67372;SDS011;54257;54.496;18.412;2022-08-04T05:44:42;9.90;;;5.70;;
67372;SDS011;54257;54.496;18.412;2022-08-04T05:47:10;6.50;;;5.20;;
67372;SDS011;54257;54.496;18.412;2022-08-04T05:49:39;9.20;;;5.20;;
67372;SDS011;54257;54.496;18.412;2022-08-04T05:52:07;7.90;;;5.50;;
67372;SDS011;54257;54.496;18.412;2022-08-04T05:54:36;9.10;;;5.50;;
67372;SDS011;54257;54.496;18.412;2022-08-04T05:57:06;5.40;;;4.90;;
67372;SDS011;54257;54.496;18.412;2022-08-04T05:59:36;7.80;;;5.10;;
67372;SDS011;54257;54.496;18.412;2022-08-04T06:02:05;9.30;;;5.20;;
67372;SDS011;54257;54.496;18.412;2022-08-04T06:04:39;8.30;;;5.20;;
67372;SDS011;54257;54.496;18.412;2022-08-04T06:07:08;5.30;;;4.70;;
67372;SDS011;54257;54.496;18.412;2022-08-04T06:09:38;8.00;;;4.80;;
67372;SDS011;54257;54.496;18.412;2022-08-04T06:12:12;7.30;;;5.00;;
67372;SDS011;54257;54.496;18.412;2022-08-04T06:14:46;5.90;;;5.10;;
67372;SDS011;54257;54.496;18.412;2022-08-04T06:17:23;6.10;;;4.60;;
67372;SDS011;54257;54.496;18.412;2022-08-04T06:19:54;6.10;;;5.50;;
67372;SDS011;54257;54.496;18.412;2022-08-04T06:22:23;9.40;;;5.10;;
67372;SDS011;54257;54.496;18.412;2022-08-04T06:24:54;5.70;;;5.20;;
67372;SDS011;54257;54.496;18.412;2022-08-04T06:27:23;5.50;;;4.20;;
67372;SDS011;54257;54.496;18.412;2022-08-04T06:29:52;6.60;;;5.40;;
67372;SDS011;54257;54.496;18.412;2022-08-04T06:32:22;8.60;;;4.90;;
67372;SDS011;54257;54.496;18.412;2022-08-04T06:35:16;6.20;;;4.40;;
67372;SDS011;54257;54.496;18.412;2022-08-04T06:37:44;5.40;;;4.70;;
67372;SDS011;54257;54.496;18.412;2022-08-04T06:40:13;9.20;;;5.30;;
67372;SDS011;54257;54.496;18.412;2022-08-04T06:42:47;9.90;;;4.90;;
67372;SDS011;54257;54.496;18.412;2022-08-04T06:45:16;8.60;;;5.60;;
67372;SDS011;54257;54.496;18.412;2022-08-04T06:47:45;6.50;;;4.70;;
67372;SDS011;54257;54.496;18.412;2022-08-04T06:50:14;7.20;;;4.70;;
67372;SDS011;54257;54.496;18.412;2022-08-04T06:52:43;9.40;;;6.20;;
67372;SDS011;54257;54.496;18.412;2022-08-04T06:55:11;5.60;;;4.70;;
67372;SDS011;54257;54.496;18.412;2022-08-04T06:57:39;6.50;;;4.40;;
67372;SDS011;54257;54.496;18.412;2022-08-04T07:00:12;10.20;;;6.40;;
67372;SDS011;54257;54.496;18.412;2022-08-04T07:02:43;4.90;;;4.30;;
67372;SDS011;54257;54.496;18.412;2022-08-04T07:05:14;4.80;;;4.40;;
67372;SDS011;54257;54.496;18.412;2022-08-04T07:07:42;4.60;;;4.30;;
67372;SDS011;54257;54.496;18.412;2022-08-04T07:10:10;4.60;;;4.20;;
67372;SDS011;54257;54.496;18.412;2022-08-04T07:12:37;5.00;;;4.10;;
67372;SDS011;54257;54.496;18.412;2022-08-04T07:15:07;7.70;;;4.20;;
67372;SDS011;54257;54.496;18.412;2022-08-04T07:17:35;5.80;;;4.10;;
67372;SDS011;54257;54.496;18.412;2022-08-04T07:20:03;10.60;;;5.30;;
67372;SDS011;54257;54.496;18.412;2022-08-04T07:22:31;22.80;;;5.40;;
67372;SDS011;54257;54.496;18.412;2022-08-04T07:24:58;6.10;;;4.10;;
67372;SDS011;54257;54.496;18.412;2022-08-04T07:27:26;5.50;;;4.00;;
67372;SDS011;54257;54.496;18.412;2022-08-04T07:29:54;4.00;;;3.70;;
67372;SDS011;54257;54.496;18.412;2022-08-04T07:32:22;4.40;;;4.10;;
67372;SDS011;54257;54.496;18.412;2022-08-04T07:34:50;3.90;;;3.40;;
67372;SDS011;54257;54.496;18.412;2022-08-04T07:37:19;4.20;;;3.60;;
67372;SDS011;54257;54.496;18.412;2022-08-04T07:39:55;4.50;;;4.10;;
67372;SDS011;54257;54.496;18.412;2022-08-04T07:42:22;4.70;;;3.80;;
67372;SDS011;54257;54.496;18.412;2022-08-04T07:44:50;4.90;;;4.40;;
67372;SDS011;54257;54.496;18.412;2022-08-04T07:47:17;5.50;;;4.10;;
67372;SDS011;54257;54.496;18.412;2022-08-04T07:49:44;4.20;;;3.80;;
67372;SDS011;54257;54.496;18.412;2022-08-04T07:52:13;4.60;;;4.10;;
67372;SDS011;54257;54.496;18.412;2022-08-04T07:54:41;4.50;;;3.40;;
67372;SDS011;54257;54.496;18.412;2022-08-04T07:57:09;5.80;;;3.50;;
67372;SDS011;54257;54.496;18.412;2022-08-04T07:59:36;3.80;;;3.30;;
67372;SDS011;54257;54.496;18.412;2022-08-04T08:02:03;3.70;;;3.40;;
67372;SDS011;54257;54.496;18.412;2022-08-04T08:04:31;5.50;;;3.90;;
67372;SDS011;54257;54.496;18.412;2022-08-04T08:06:59;4.40;;;3.90;;
67372;SDS011;54257;54.496;18.412;2022-08-04T08:09:26;4.90;;;3.50;;
67372;SDS011;54257;54.496;18.412;2022-08-04T08:11:53;5.70;;;3.70;;
67372;SDS011;54257;54.496;18.412;2022-08-04T08:14:20;4.20;;;3.50;;
67372;SDS011;54257;54.496;18.412;2022-08-04T08:16:48;6.10;;;4.00;;
67372;SDS011;54257;54.496;18.412;2022-08-04T08:19:15;4.30;;;3.90;;
67372;SDS011;54257;54.496;18.412;2022-08-04T08:21:46;5.00;;;3.90;;
67372;SDS011;54257;54.496;18.412;2022-08-04T08:24:16;7.70;;;4.00;;
67372;SDS011;54257;54.496;18.412;2022-08-04T08:26:44;6.80;;;4.00;;
67372;SDS011;54257;54.496;18.412;2022-08-04T08:29:11;4.80;;;3.80;;
67372;SDS011;54257;54.496;18.412;2022-08-04T08:31:38;4.40;;;3.30;;
67372;SDS011;54257;54.496;18.412;2022-08-04T08:34:05;4.40;;;3.30;;
67372;SDS011;54257;54.496;18.412;2022-08-04T08:39:20;5.50;;;3.50;;
67372;SDS011;54257;54.496;18.412;2022-08-04T08:52:21;3.60;;;3.00;;
67372;SDS011;54257;54.496;18.412;2022-08-04T08:54:56;3.90;;;3.30;;
67372;SDS011;54257;54.496;18.412;2022-08-04T08:57:39;4.40;;;3.30;;
67372;SDS011;54257;54.496;18.412;2022-08-04T09:00:19;3.80;;;3.30;;
67372;SDS011;54257;54.496;18.412;2022-08-04T09:05:52;5.30;;;3.60;;
67372;SDS011;54257;54.496;18.412;2022-08-04T09:14:44;3.90;;;3.00;;
67372;SDS011;54257;54.496;18.412;2022-08-04T09:17:53;3.40;;;3.20;;
67372;SDS011;54257;54.496;18.412;2022-08-04T09:20:15;4.00;;;3.10;;
67372;SDS011;54257;54.496;18.412;2022-08-04T09:22:50;4.50;;;3.90;;
67372;SDS011;54257;54.496;18.412;2022-08-04T09:25:40;4.10;;;3.30;;
67372;SDS011;54257;54.496;18.412;2022-08-04T09:28:30;3.60;;;3.20;;
67372;SDS011;54257;54.496;18.412;2022-08-04T09:31:12;3.70;;;2.80;;
67372;SDS011;54257;54.496;18.412;2022-08-04T09:36:40;3.60;;;2.90;;
67372;SDS011;54257;54.496;18.412;2022-08-04T09:39:32;3.00;;;2.70;;
67372;SDS011;54257;54.496;18.412;2022-08-04T09:48:00;4.10;;;3.30;;
67372;SDS011;54257;54.496;18.412;2022-08-04T09:50:37;6.70;;;3.40;;
67372;SDS011;54257;54.496;18.412;2022-08-04T09:56:34;3.30;;;2.60;;
67372;SDS011;54257;54.496;18.412;2022-08-04T09:59:26;4.70;;;2.90;;
67372;SDS011;54257;54.496;18.412;2022-08-04T10:02:02;3.50;;;3.20;;
67372;SDS011;54257;54.496;18.412;2022-08-04T10:04:34;3.10;;;2.90;;
67372;SDS011;54257;54.496;18.412;2022-08-04T10:07:28;5.10;;;3.20;;
67372;SDS011;54257;54.496;18.412;2022-08-04T10:09:59;3.70;;;3.50;;
67372;SDS011;54257;54.496;18.412;2022-08-04T10:12:43;3.90;;;3.00;;
67372;SDS011;54257;54.496;18.412;2022-08-04T10:18:22;4.10;;;3.20;;
67372;SDS011;54257;54.496;18.412;2022-08-04T10:27:09;15.90;;;4.50;;
67372;SDS011;54257;54.496;18.412;2022-08-04T10:29:43;3.70;;;3.30;;
67372;SDS011;54257;54.496;18.412;2022-08-04T10:34:51;4.80;;;3.30;;
67372;SDS011;54257;54.496;18.412;2022-08-04T10:40:39;3.60;;;3.20;;
67372;SDS011;54257;54.496;18.412;2022-08-04T10:46:10;5.00;;;3.30;;
67372;SDS011;54257;54.496;18.412;2022-08-04T10:49:01;4.90;;;2.70;;
67372;SDS011;54257;54.496;18.412;2022-08-04T10:51:46;3.20;;;3.00;;
67372;SDS011;54257;54.496;18.412;2022-08-04T10:57:14;3.40;;;3.10;;
67372;SDS011;54257;54.496;18.412;2022-08-04T11:02:24;4.90;;;3.50;;
67372;SDS011;54257;54.496;18.412;2022-08-04T11:05:13;6.10;;;3.30;;
67372;SDS011;54257;54.496;18.412;2022-08-04T11:08:16;4.00;;;3.50;;
67372;SDS011;54257;54.496;18.412;2022-08-04T11:11:30;3.40;;;3.00;;
67372;SDS011;54257;54.496;18.412;2022-08-04T11:22:26;3.90;;;3.30;;
67372;SDS011;54257;54.496;18.412;2022-08-04T11:30:06;3.50;;;3.20;;
67372;SDS011;54257;54.496;18.412;2022-08-04T11:35:11;4.00;;;3.30;;
67372;SDS011;54257;54.496;18.412;2022-08-04T11:38:10;3.70;;;3.40;;
67372;SDS011;54257;54.496;18.412;2022-08-04T11:40:46;121.60;;;14.00;;
67372;SDS011;54257;54.496;18.412;2022-08-04T11:46:06;7.00;;;4.00;;
67372;SDS011;54257;54.496;18.412;2022-08-04T11:48:40;4.10;;;3.60;;
67372;SDS011;54257;54.496;18.412;2022-08-04T11:51:14;17.50;;;4.40;;
67372;SDS011;54257;54.496;18.412;2022-08-04T11:53:44;10.20;;;3.90;;
67372;SDS011;54257;54.496;18.412;2022-08-04T11:56:12;5.90;;;3.80;;
67372;SDS011;54257;54.496;18.412;2022-08-04T11:58:42;4.40;;;3.80;;
67372;SDS011;54257;54.496;18.412;2022-08-04T12:04:13;6.00;;;4.20;;
67372;SDS011;54257;54.496;18.412;2022-08-04T12:06:54;5.70;;;4.00;;
67372;SDS011;54257;54.496;18.412;2022-08-04T12:12:38;6.80;;;4.10;;
67372;SDS011;54257;54.496;18.412;2022-08-04T12:20:21;5.00;;;3.70;;
67372;SDS011;54257;54.496;18.412;2022-08-04T12:22:50;4.70;;;3.70;;
67372;SDS011;54257;54.496;18.412;2022-08-04T12:25:26;6.80;;;3.80;;
67372;SDS011;54257;54.496;18.412;2022-08-04T12:27:59;6.10;;;3.90;;
67372;SDS011;54257;54.496;18.412;2022-08-04T12:30:35;9.60;;;4.60;;
67372;SDS011;54257;54.496;18.412;2022-08-04T12:33:14;4.80;;;4.10;;
67372;SDS011;54257;54.496;18.412;2022-08-04T12:35:59;9.00;;;4.20;;
67372;SDS011;54257;54.496;18.412;2022-08-04T12:38:37;4.60;;;4.10;;
67372;SDS011;54257;54.496;18.412;2022-08-04T12:41:12;5.30;;;3.70;;
67372;SDS011;54257;54.496;18.412;2022-08-04T12:43:47;4.30;;;3.90;;
67372;SDS011;54257;54.496;18.412;2022-08-04T12:46:22;4.80;;;3.90;;
67372;SDS011;54257;54.496;18.412;2022-08-04T12:48:52;4.20;;;3.90;;
67372;SDS011;54257;54.496;18.412;2022-08-04T12:51:27;5.80;;;3.80;;
67372;SDS011;54257;54.496;18.412;2022-08-04T12:53:54;6.30;;;3.90;;
67372;SDS011;54257;54.496;18.412;2022-08-04T12:56:24;8.60;;;3.90;;
67372;SDS011;54257;54.496;18.412;2022-08-04T12:58:59;6.10;;;4.00;;
67372;SDS011;54257;54.496;18.412;2022-08-04T13:01:31;6.00;;;3.80;;
67372;SDS011;54257;54.496;18.412;2022-08-04T13:04:22;3.60;;;3.30;;
67372;SDS011;54257;54.496;18.412;2022-08-04T13:07:06;6.60;;;3.90;;
67372;SDS011;54257;54.496;18.412;2022-08-04T13:09:41;4.70;;;3.20;;
67372;SDS011;54257;54.496;18.412;2022-08-04T13:12:16;7.70;;;3.70;;
67372;SDS011;54257;54.496;18.412;2022-08-04T13:14:48;5.50;;;3.50;;
67372;SDS011;54257;54.496;18.412;2022-08-04T13:17:18;4.60;;;4.20;;
67372;SDS011;54257;54.496;18.412;2022-08-04T13:19:46;6.10;;;3.90;;
67372;SDS011;54257;54.496;18.412;2022-08-04T13:22:27;4.50;;;4.10;;
67372;SDS011;54257;54.496;18.412;2022-08-04T13:24:56;5.10;;;3.60;;
67372;SDS011;54257;54.496;18.412;2022-08-04T13:27:25;4.00;;;3.60;;
67372;SDS011;54257;54.496;18.412;2022-08-04T13:29:56;5.90;;;4.00;;
67372;SDS011;54257;54.496;18.412;2022-08-04T13:32:24;4.10;;;3.80;;
67372;SDS011;54257;54.496;18.412;2022-08-04T13:34:52;5.70;;;3.80;;
67372;SDS011;54257;54.496;18.412;2022-08-04T13:37:25;7.50;;;4.20;;
67372;SDS011;54257;54.496;18.412;2022-08-04T13:40:01;6.40;;;3.90;;
67372;SDS011;54257;54.496;18.412;2022-08-04T13:42:32;9.30;;;3.80;;
67372;SDS011;54257;54.496;18.412;2022-08-04T13:45:00;7.30;;;4.10;;
67372;SDS011;54257;54.496;18.412;2022-08-04T13:47:33;5.00;;;4.00;;
67372;SDS011;54257;54.496;18.412;2022-08-04T13:52:36;4.60;;;4.20;;
67372;SDS011;54257;54.496;18.412;2022-08-04T13:55:03;5.00;;;4.30;;
67372;SDS011;54257;54.496;18.412;2022-08-04T13:57:35;3.90;;;3.50;;
67372;SDS011;54257;54.496;18.412;2022-08-04T14:00:08;5.80;;;4.00;;
67372;SDS011;54257;54.496;18.412;2022-08-04T14:05:13;7.20;;;3.90;;
67372;SDS011;54257;54.496;18.412;2022-08-04T14:08:35;7.20;;;4.60;;
67372;SDS011;54257;54.496;18.412;2022-08-04T14:10:56;5.40;;;4.00;;
67372;SDS011;54257;54.496;18.412;2022-08-04T14:13:30;6.40;;;3.90;;
67372;SDS011;54257;54.496;18.412;2022-08-04T14:15:59;7.00;;;3.80;;
67372;SDS011;54257;54.496;18.412;2022-08-04T14:18:29;6.20;;;3.70;;
67372;SDS011;54257;54.496;18.412;2022-08-04T14:23:28;6.40;;;3.80;;
67372;SDS011;54257;54.496;18.412;2022-08-04T14:29:11;4.80;;;3.80;;
67372;SDS011;54257;54.496;18.412;2022-08-04T14:31:40;5.80;;;4.20;;
67372;SDS011;54257;54.496;18.412;2022-08-04T14:34:07;5.10;;;4.00;;
67372;SDS011;54257;54.496;18.412;2022-08-04T14:36:39;4.80;;;4.20;;
67372;SDS011;54257;54.496;18.412;2022-08-04T14:39:09;4.50;;;4.00;;
67372;SDS011;54257;54.496;18.412;2022-08-04T14:41:48;4.80;;;4.40;;
67372;SDS011;54257;54.496;18.412;2022-08-04T14:44:16;4.30;;;3.80;;
67372;SDS011;54257;54.496;18.412;2022-08-04T14:46:50;4.80;;;4.40;;
67372;SDS011;54257;54.496;18.412;2022-08-04T14:49:19;5.10;;;4.70;;
67372;SDS011;54257;54.496;18.412;2022-08-04T14:54:25;5.60;;;4.30;;
67372;SDS011;54257;54.496;18.412;2022-08-04T14:56:59;5.00;;;4.50;;
67372;SDS011;54257;54.496;18.412;2022-08-04T14:59:39;4.10;;;3.60;;
67372;SDS011;54257;54.496;18.412;2022-08-04T15:02:11;6.10;;;4.00;;
67372;SDS011;54257;54.496;18.412;2022-08-04T15:04:40;6.90;;;4.20;;
67372;SDS011;54257;54.496;18.412;2022-08-04T15:07:09;5.60;;;4.50;;
67372;SDS011;54257;54.496;18.412;2022-08-04T15:09:36;4.80;;;3.80;;
67372;SDS011;54257;54.496;18.412;2022-08-04T15:12:04;5.00;;;3.90;;
67372;SDS011;54257;54.496;18.412;2022-08-04T15:14:31;4.50;;;4.10;;
67372;SDS011;54257;54.496;18.412;2022-08-04T15:17:00;4.20;;;3.90;;
67372;SDS011;54257;54.496;18.412;2022-08-04T15:19:28;5.40;;;4.50;;
67372;SDS011;54257;54.496;18.412;2022-08-04T15:21:56;4.30;;;3.90;;
67372;SDS011;54257;54.496;18.412;2022-08-04T15:24:24;5.20;;;4.70;;
67372;SDS011;54257;54.496;18.412;2022-08-04T15:26:51;5.00;;;3.90;;
67372;SDS011;54257;54.496;18.412;2022-08-04T15:29:27;8.90;;;4.30;;
67372;SDS011;54257;54.496;18.412;2022-08-04T15:32:03;7.10;;;4.20;;
67372;SDS011;54257;54.496;18.412;2022-08-04T15:34:51;4.70;;;4.30;;
67372;SDS011;54257;54.496;18.412;2022-08-04T15:37:30;6.00;;;4.50;;
67372;SDS011;54257;54.496;18.412;2022-08-04T15:40:10;6.00;;;4.40;;
67372;SDS011;54257;54.496;18.412;2022-08-04T15:42:48;5.60;;;4.30;;
67372;SDS011;54257;54.496;18.412;2022-08-04T15:45:24;4.50;;;4.10;;
67372;SDS011;54257;54.496;18.412;2022-08-04T15:50:31;5.60;;;4.00;;
67372;SDS011;54257;54.496;18.412;2022-08-04T15:52:58;5.70;;;4.70;;
67372;SDS011;54257;54.496;18.412;2022-08-04T15:58:12;7.10;;;4.40;;
67372;SDS011;54257;54.496;18.412;2022-08-04T16:05:59;9.30;;;4.30;;
67372;SDS011;54257;54.496;18.412;2022-08-04T16:19:03;5.10;;;4.60;;
67372;SDS011;54257;54.496;18.412;2022-08-04T16:21:31;4.70;;;4.00;;
67372;SDS011;54257;54.496;18.412;2022-08-04T16:24:15;5.70;;;4.40;;
67372;SDS011;54257;54.496;18.412;2022-08-04T16:27:05;5.30;;;4.40;;
67372;SDS011;54257;54.496;18.412;2022-08-04T16:34:34;6.90;;;4.70;;
67372;SDS011;54257;54.496;18.412;2022-08-04T16:37:35;5.40;;;4.60;;
67372;SDS011;54257;54.496;18.412;2022-08-04T16:48:07;5.50;;;4.90;;
67372;SDS011;54257;54.496;18.412;2022-08-04T16:53:22;5.60;;;5.00;;
67372;SDS011;54257;54.496;18.412;2022-08-04T16:55:54;6.70;;;5.10;;
67372;SDS011;54257;54.496;18.412;2022-08-04T16:58:32;6.30;;;4.80;;
67372;SDS011;54257;54.496;18.412;2022-08-04T17:01:10;6.30;;;5.60;;
67372;SDS011;54257;54.496;18.412;2022-08-04T17:03:40;5.40;;;4.80;;
67372;SDS011;54257;54.496;18.412;2022-08-04T17:06:16;5.70;;;5.30;;
67372;SDS011;54257;54.496;18.412;2022-08-04T17:08:43;5.10;;;4.70;;
67372;SDS011;54257;54.496;18.412;2022-08-04T17:11:11;5.80;;;5.30;;
67372;SDS011;54257;54.496;18.412;2022-08-04T17:13:48;6.00;;;5.40;;
67372;SDS011;54257;54.496;18.412;2022-08-04T17:16:15;5.60;;;5.10;;
67372;SDS011;54257;54.496;18.412;2022-08-04T17:18:50;5.40;;;5.00;;
67372;SDS011;54257;54.496;18.412;2022-08-04T17:23:51;6.30;;;5.40;;
67372;SDS011;54257;54.496;18.412;2022-08-04T17:26:21;7.10;;;5.80;;
67372;SDS011;54257;54.496;18.412;2022-08-04T17:28:50;5.90;;;5.40;;
67372;SDS011;54257;54.496;18.412;2022-08-04T17:31:21;6.60;;;6.10;;
67372;SDS011;54257;54.496;18.412;2022-08-04T17:33:52;7.70;;;5.40;;
67372;SDS011;54257;54.496;18.412;2022-08-04T17:36:21;6.50;;;5.70;;
67372;SDS011;54257;54.496;18.412;2022-08-04T17:38:51;5.60;;;5.10;;
67372;SDS011;54257;54.496;18.412;2022-08-04T17:41:23;6.40;;;5.80;;
67372;SDS011;54257;54.496;18.412;2022-08-04T17:43:53;7.00;;;6.40;;
67372;SDS011;54257;54.496;18.412;2022-08-04T17:51:39;6.80;;;6.10;;
67372;SDS011;54257;54.496;18.412;2022-08-04T17:56:54;9.30;;;6.90;;
67372;SDS011;54257;54.496;18.412;2022-08-04T18:01:51;6.30;;;5.70;;
67372;SDS011;54257;54.496;18.412;2022-08-04T18:04:23;7.40;;;6.00;;
67372;SDS011;54257;54.496;18.412;2022-08-04T18:07:02;6.70;;;5.80;;
67372;SDS011;54257;54.496;18.412;2022-08-04T18:09:34;9.20;;;6.20;;
67372;SDS011;54257;54.496;18.412;2022-08-04T18:12:03;6.80;;;6.30;;
67372;SDS011;54257;54.496;18.412;2022-08-04T18:14:43;7.00;;;6.20;;
67372;SDS011;54257;54.496;18.412;2022-08-04T18:17:12;9.70;;;5.90;;
67372;SDS011;54257;54.496;18.412;2022-08-04T18:19:50;12.00;;;7.00;;
67372;SDS011;54257;54.496;18.412;2022-08-04T18:22:18;9.10;;;6.80;;
67372;SDS011;54257;54.496;18.412;2022-08-04T18:24:45;7.90;;;6.80;;
67372;SDS011;54257;54.496;18.412;2022-08-04T18:27:13;7.80;;;6.40;;
67372;SDS011;54257;54.496;18.412;2022-08-04T18:29:41;10.50;;;6.80;;
67372;SDS011;54257;54.496;18.412;2022-08-04T18:32:09;8.50;;;6.90;;
67372;SDS011;54257;54.496;18.412;2022-08-04T18:34:36;8.80;;;6.30;;
67372;SDS011;54257;54.496;18.412;2022-08-04T18:37:03;7.80;;;7.20;;
67372;SDS011;54257;54.496;18.412;2022-08-04T18:39:31;7.40;;;6.70;;
67372;SDS011;54257;54.496;18.412;2022-08-04T18:41:58;7.70;;;6.90;;
67372;SDS011;54257;54.496;18.412;2022-08-04T18:44:27;7.70;;;6.90;;
67372;SDS011;54257;54.496;18.412;2022-08-04T18:46:55;8.10;;;6.50;;
67372;SDS011;54257;54.496;18.412;2022-08-04T18:49:23;7.70;;;6.90;;
67372;SDS011;54257;54.496;18.412;2022-08-04T18:51:50;11.40;;;7.30;;
67372;SDS011;54257;54.496;18.412;2022-08-04T18:54:19;7.30;;;6.60;;
67372;SDS011;54257;54.496;18.412;2022-08-04T18:56:47;8.30;;;6.30;;
67372;SDS011;54257;54.496;18.412;2022-08-04T18:59:15;7.30;;;6.50;;
67372;SDS011;54257;54.496;18.412;2022-08-04T19:01:43;8.60;;;7.40;;
67372;SDS011;54257;54.496;18.412;2022-08-04T19:04:10;10.80;;;7.20;;
67372;SDS011;54257;54.496;18.412;2022-08-04T19:06:37;13.00;;;8.10;;
67372;SDS011;54257;54.496;18.412;2022-08-04T19:09:07;9.10;;;7.30;;
67372;SDS011;54257;54.496;18.412;2022-08-04T19:11:34;7.60;;;6.70;;
67372;SDS011;54257;54.496;18.412;2022-08-04T19:14:02;11.00;;;7.10;;
67372;SDS011;54257;54.496;18.412;2022-08-04T19:16:30;7.30;;;6.70;;
67372;SDS011;54257;54.496;18.412;2022-08-04T19:18:58;11.70;;;7.20;;
67372;SDS011;54257;54.496;18.412;2022-08-04T19:21:28;10.60;;;7.80;;
67372;SDS011;54257;54.496;18.412;2022-08-04T19:23:55;9.90;;;6.90;;
67372;SDS011;54257;54.496;18.412;2022-08-04T19:26:23;13.40;;;7.30;;
67372;SDS011;54257;54.496;18.412;2022-08-04T19:28:51;12.00;;;7.70;;
67372;SDS011;54257;54.496;18.412;2022-08-04T19:31:19;10.30;;;8.80;;
67372;SDS011;54257;54.496;18.412;2022-08-04T19:33:48;19.20;;;9.30;;
67372;SDS011;54257;54.496;18.412;2022-08-04T19:36:15;10.80;;;9.10;;
67372;SDS011;54257;54.496;18.412;2022-08-04T19:38:43;10.70;;;8.60;;
67372;SDS011;54257;54.496;18.412;2022-08-04T19:41:10;8.70;;;7.70;;